Latest Weather Observations for Croker Island Airport

IDD60801

Issued at 11:05 pm CST Tuesday 2 September 2014 (issued every 30 minutes, with the page automatically refreshed every 10 minutes)

About weather observations | Map of weather stations | Latest weather observations for NT | Other Formats
Station Details ID: 014308 Name: CROKER ISLAND AIRPORT Lat: -11.16 Lon: 132.48 Height: 9.2 m
Data from the previous 72 hours. | See also: Recent months for locations in Northern Territory
Date/Time
CST
Temp
°C
App
Temp
°C
Dew
Point
Rel
Hum
%
Delta-T
°C
Wind Press
QNH
hPa
Press
MSL
hPa
Rain
since 9 am
mm
Dir
 
Spd
km/h
Gust
km/h
Spd
kts
Gust
kts
02/11:00pm 20.5 22.4 18.6 89 1.2 ENE 6 6 3 3 1015.2 1015.1 -
02/10:30pm 20.8 22.7 17.6 82 2.0 ENE 4 4 2 2 1015.1 1015.0 -
02/10:00pm 22.3 24.4 18.1 77 2.6 ENE 4 6 2 3 1014.9 1014.8 -
02/09:30pm 23.4 25.2 18.7 75 3.0 ENE 7 11 4 6 1014.8 1014.7 -
02/09:00pm 23.6 25.0 17.8 70 3.6 ENE 7 9 4 5 1014.6 1014.5 -
02/08:30pm 23.7 24.9 17.4 68 3.9 ENE 7 11 4 6 1014.5 1014.4 -
02/08:00pm 24.1 24.7 16.9 64 4.4 ENE 9 11 5 6 1014.0 1013.9 -
02/07:30pm 24.5 24.9 16.2 60 5.1 ENE 9 13 5 7 1013.5 1013.4 -
02/07:00pm 25.2 24.8 16.1 57 5.6 E 13 19 7 10 1012.9 1012.8 -
02/06:30pm 26.2 25.2 15.6 52 6.5 ENE 15 20 8 11 1012.6 1012.5 -
02/06:00pm 27.3 24.9 14.3 45 7.8 ENE 20 28 11 15 1012.3 1012.2 -
02/05:30pm 28.4 25.2 13.1 39 9.0 ENE 22 37 12 20 1012.0 1011.9 -
02/05:00pm 28.9 24.4 11.5 34 10.0 ENE 26 37 14 20 1011.7 1011.6 -
02/04:30pm 30.0 24.9 10.5 30 11.1 ENE 28 46 15 25 1011.7 1011.6 -
02/04:00pm 30.6 26.5 10.0 28 11.7 ENE 22 39 12 21 1011.7 1011.6 -
02/03:39pm 30.7 25.0 8.4 25 12.3 ENE 28 48 15 26 1011.8 1011.7 -
02/03:30pm 31.0 26.3 9.3 26 12.2 ENE 24 41 13 22 1011.9 1011.8 -
02/03:00pm 30.3 25.5 10.3 29 11.4 ENE 26 37 14 20 1012.2 1012.1 -
02/02:30pm 30.8 27.5 11.7 31 11.1 E 20 33 11 18 1012.5 1012.4 -
02/02:00pm 31.2 27.9 11.6 30 11.4 E 20 35 11 19 1012.7 1012.6 -
02/01:30pm 31.5 28.3 11.8 30 11.5 E 20 32 11 17 1013.1 1013.0 -
02/01:00pm 31.6 28.1 10.3 27 12.2 E 19 28 10 15 1013.3 1013.2 -
02/12:30pm 31.0 27.8 11.4 30 11.4 ENE 19 30 10 16 1013.8 1013.7 -
02/12:00pm 30.7 29.0 14.8 38 9.7 ENE 17 26 9 14 1014.2 1014.1 -
02/11:30am 30.6 28.4 14.3 37 9.9 E 19 28 10 15 1014.7 1014.6 -
02/11:00am 30.1 27.8 14.2 38 9.6 E 19 28 10 15 1015.0 1014.9 -
02/10:30am 29.1 28.1 16.6 46 7.8 E 17 26 9 14 1015.4 1015.3 -
02/10:00am 28.6 29.2 18.7 55 6.4 E 13 20 7 11 1015.5 1015.4 -
02/09:30am 27.4 28.7 19.2 61 5.3 E 11 19 6 10 1015.6 1015.5 -
02/09:00am 25.8 28.6 20.8 74 3.3 ESE 7 13 4 7 1015.4 1015.3 -
02/08:30am 24.4 28.1 22.5 89 1.3 SSE 7 11 4 6 1015.3 1015.2 -
02/08:00am 23.3 27.5 23.1 99 0.1 SE 6 9 3 5 1015.1 1015.0 -
02/07:30am 21.3 24.5 21.3 100 0.0 ESE 6 7 3 4 1014.9 1014.8 -
02/07:00am 19.9 22.4 19.9 100 0.0 SE 6 9 3 5 1014.7 1014.6 -
02/06:30am 19.8 22.3 19.8 100 0.0 E 6 7 3 4 1014.3 1014.2 -
02/06:00am 19.8 22.7 19.8 100 0.0 E 4 6 2 3 1014.0 1013.9 -
02/05:30am 20.8 23.8 20.8 100 0.0 ESE 6 7 3 4 1014.0 1013.9 -
02/05:00am 20.9 23.9 20.9 100 0.0 SE 6 7 3 4 1014.1 1014.0 -
02/04:30am 21.4 24.5 21.4 100 0.0 E 7 11 4 6 1014.0 1013.9 -
02/04:00am 20.5 23.1 20.5 100 0.0 E 7 9 4 5 1014.0 1013.9 -
02/03:30am 20.4 23.0 20.4 100 0.0 ESE 7 9 4 5 1014.0 1013.9 -
02/03:00am 19.5 21.8 19.5 100 0.0 E 6 7 3 4 1014.0 1013.9 -
02/02:30am 19.8 22.0 19.3 97 0.3 E 6 7 3 4 1014.0 1013.9 -
02/02:00am 19.5 21.1 18.2 92 0.8 E 7 7 4 4 1014.2 1014.1 -
02/01:30am 19.7 20.9 18.2 91 0.9 E 9 11 5 6 1014.3 1014.2 -
02/01:00am 19.4 20.6 17.4 88 1.2 E 7 11 4 6 1014.5 1014.4 -
02/12:30am 19.4 20.4 16.8 85 1.6 E 7 9 4 5 1014.5 1014.4 -
02/12:00am 19.8 21.1 17.0 84 1.7 E 6 6 3 3 1014.4 1014.3 -
 
Date/Time
CST
Temp
°C
App
Temp
°C
Dew
Point
Rel
Hum
%
Delta-T
°C
Wind Press
QNH
hPa
Press
MSL
hPa
Rain
since 9 am
mm
Dir
 
Spd
km/h
Gust
km/h
Spd
kts
Gust
kts
01/11:30pm 20.1 21.3 16.9 82 1.9 E 6 6 3 3 1014.3 1014.2 -
01/11:00pm 20.8 22.3 17.6 82 2.0 E 6 6 3 3 1014.3 1014.2 -
01/10:30pm 20.0 21.2 16.8 82 1.9 ENE 6 6 3 3 1014.3 1014.2 -
01/10:00pm 20.1 21.2 15.7 76 2.6 ENE 4 4 2 2 1014.2 1014.1 -
01/09:30pm 21.2 21.9 15.7 71 3.3 ENE 6 7 3 4 1014.0 1013.9 -
01/09:00pm 22.7 23.6 16.5 68 3.8 ENE 7 9 4 5 1013.5 1013.4 -
01/08:30pm 22.8 23.3 15.6 64 4.3 ENE 7 9 4 5 1013.1 1013.0 -
01/08:00pm 23.4 23.9 15.5 61 4.7 ENE 7 9 4 5 1012.6 1012.5 -
01/07:30pm 24.0 24.6 15.8 60 5.0 ENE 7 9 4 5 1012.1 1012.0 -
01/07:00pm 25.1 24.8 15.4 55 5.9 ENE 11 15 6 8 1011.8 1011.7 -
01/06:30pm 26.4 25.0 13.5 45 7.6 ENE 13 17 7 9 1011.6 1011.5 -
01/06:00pm 28.0 25.9 11.1 35 9.6 E 13 17 7 9 1011.3 1011.2 -
01/05:30pm 28.8 26.0 10.0 31 10.6 E 15 22 8 12 1011.1 1011.0 -
01/05:00pm 29.7 26.9 11.2 31 10.6 E 17 22 9 12 1011.0 1010.9 -
01/04:30pm 30.2 26.4 9.7 28 11.6 ENE 20 26 11 14 1011.0 1010.9 -
01/04:00pm 30.7 26.7 9.0 26 12.1 E 20 28 11 15 1010.8 1010.7 -
01/03:30pm 30.9 26.1 7.4 23 12.8 E 22 32 12 17 1010.8 1010.7 -
01/03:00pm 31.8 27.6 8.1 23 13.1 E 20 30 11 16 1011.1 1011.0 -
01/02:30pm 31.8 27.2 8.1 23 13.1 E 22 37 12 20 1011.4 1011.3 -
01/02:00pm 31.9 25.5 5.4 19 14.0 E 28 39 15 21 1011.6 1011.5 -
01/01:30pm 32.5 28.4 8.0 22 13.6 E 19 30 10 16 1012.1 1012.0 -
01/01:00pm 32.3 27.9 7.2 21 13.7 E 20 35 11 19 1012.7 1012.6 -
01/12:30pm 31.7 27.6 8.7 24 12.8 ESE 20 30 11 16 1013.2 1013.1 -
01/12:00pm 31.4 27.4 8.4 24 12.8 E 19 30 10 16 1013.6 1013.5 -
01/11:30am 30.2 27.9 11.7 32 10.8 SE 15 24 8 13 1014.0 1013.9 -
01/11:00am 29.9 29.8 17.0 45 8.1 ESE 13 20 7 11 1014.6 1014.5 -
01/10:30am 29.3 29.6 18.7 52 6.8 ESE 15 24 8 13 1015.0 1014.9 -
01/10:00am 29.0 30.8 18.7 53 6.6 E 7 13 4 7 1015.0 1014.9 -
01/09:30am 28.0 29.0 18.7 57 6.0 E 11 19 6 10 1015.1 1015.0 -
01/09:00am 27.0 28.1 18.8 60 5.3 E 11 17 6 9 1015.2 1015.1 -
01/08:30am 25.4 27.8 20.0 72 3.5 E 7 11 4 6 1015.0 1014.9 -
01/08:00am 24.4 28.2 21.7 85 1.8 E 4 6 2 3 1014.9 1014.8 -
01/07:30am 21.7 25.8 21.5 99 0.1 E 2 6 1 3 1014.8 1014.7 -
01/07:00am 20.4 23.3 19.1 92 0.8 E 2 4 1 2 1014.4 1014.3 -
01/06:30am 20.9 24.0 18.7 87 1.4 CALM 0 4 0 2 1014.1 1014.0 -
01/06:00am 22.5 25.5 20.0 86 1.6 E 4 7 2 4 1013.9 1013.8 -
01/05:30am 23.2 24.9 20.9 87 1.5 E 13 20 7 11 1013.7 1013.6 -
01/05:00am 23.3 25.2 21.4 89 1.3 E 13 19 7 10 1013.3 1013.2 -
01/04:30am 23.1 26.2 22.1 94 0.7 E 9 15 5 8 1013.1 1013.0 -
01/04:00am 22.9 26.4 22.2 96 0.5 E 7 15 4 8 1013.1 1013.0 -
01/03:30am 22.7 26.2 21.9 95 0.5 E 6 9 3 5 1012.9 1012.8 -
01/03:00am 22.7 26.2 22.2 97 0.3 ENE 7 13 4 7 1013.0 1012.9 -
01/02:30am 22.4 25.8 21.7 96 0.5 NE 6 11 3 6 1013.2 1013.1 -
01/02:00am 22.4 25.6 21.7 96 0.5 ENE 7 11 4 6 1013.5 1013.4 -
01/01:30am 22.3 25.3 21.3 94 0.7 ENE 7 9 4 5 1013.5 1013.4 -
01/01:00am 22.6 25.3 21.4 93 0.8 NE 9 11 5 6 1013.4 1013.3 -
01/12:30am 22.3 24.7 20.9 92 0.9 ENE 9 11 5 6 1013.5 1013.4 -
01/12:00am 22.0 24.8 20.8 93 0.8 ENE 7 11 4 6 1013.3 1013.2 -
 
Date/Time
CST
Temp
°C
App
Temp
°C
Dew
Point
Rel
Hum
%
Delta-T
°C
Wind Press
QNH
hPa
Press
MSL
hPa
Rain
since 9 am
mm
Dir
 
Spd
km/h
Gust
km/h
Spd
kts
Gust
kts
31/11:30pm 20.7 22.9 19.2 91 0.9 ENE 6 7 3 4 1013.2 1013.1 -
31/11:00pm 20.6 22.0 17.8 84 1.7 ENE 7 9 4 5 1013.1 1013.0 -
31/10:30pm 21.4 23.5 19.0 86 1.5 ENE 6 7 3 4 1013.1 1013.0 -
31/10:00pm 21.3 23.4 18.9 86 1.5 NE 6 7 3 4 1013.1 1013.0 -
31/09:30pm 20.7 22.5 17.3 81 2.1 ENE 4 6 2 3 1012.9 1012.8 -
31/09:00pm 21.1 22.2 16.5 75 2.8 E 6 6 3 3 1012.5 1012.4 -
31/08:30pm 21.9 23.0 16.6 72 3.2 E 6 7 3 4 1012.3 1012.2 -
31/08:00pm 22.1 22.9 15.9 68 3.7 E 6 7 3 4 1012.0 1011.9 -
31/07:30pm 22.6 23.5 15.2 63 4.4 ENE 4 6 2 3 1011.7 1011.6 -
31/07:00pm 24.0 24.5 15.5 59 5.1 ENE 7 11 4 6 1011.2 1011.1 -
31/06:30pm 25.1 25.5 15.4 55 5.9 E 7 13 4 7 1010.8 1010.7 -
31/06:00pm 26.5 26.3 15.8 51 6.5 ENE 11 17 6 9 1010.5 1010.4 -
31/05:30pm 27.9 26.0 14.2 43 8.2 ENE 17 24 9 13 1010.3 1010.2 -
31/05:00pm 28.9 26.3 11.9 35 9.9 ENE 17 24 9 13 1010.1 1010.0 -
31/04:30pm 29.3 26.3 11.8 34 10.2 ENE 19 28 10 15 1010.2 1010.1 -
31/04:00pm 30.1 26.4 11.6 32 10.7 ENE 22 32 12 17 1010.1 1010.0 -
31/03:30pm 30.6 25.8 8.9 26 12.1 ENE 24 37 13 20 1009.9 1009.8 -
31/03:00pm 30.9 26.2 9.2 26 12.2 ENE 24 33 13 18 1010.3 1010.2 -
31/02:30pm 30.9 26.8 11.3 30 11.4 E 24 33 13 18 1010.7 1010.6 -
31/02:00pm 31.6 27.4 9.8 26 12.4 E 22 37 12 20 1011.0 1010.9 -
31/01:30pm 31.7 26.2 7.4 22 13.3 E 26 37 14 20 1011.4 1011.3 -
31/01:00pm 31.9 26.5 6.2 20 13.8 ESE 24 33 13 18 1011.8 1011.7 -
31/12:30pm 31.2 25.6 7.0 22 13.1 ESE 26 39 14 21 1012.2 1012.1 -
31/12:00pm 31.9 26.1 4.6 18 14.3 E 24 39 13 21 1012.7 1012.6 -
31/11:30am 30.7 24.8 5.9 21 13.2 ESE 26 37 14 20 1013.1 1013.0 -
31/11:00am 30.0 26.6 10.5 30 11.1 ESE 19 26 10 14 1013.6 1013.5 -
31/10:30am 27.6 28.2 18.6 58 5.8 SSE 13 19 7 10 1014.0 1013.9 -
31/10:00am 28.5 27.5 14.7 43 8.4 ESE 13 20 7 11 1014.4 1014.3 -
31/09:30am 27.6 27.4 17.5 54 6.4 ESE 15 20 8 11 1014.6 1014.5 -
31/09:00am 26.4 27.7 18.5 62 5.0 ESE 9 15 5 8 1014.7 1014.6 -
31/08:30am 25.0 27.2 19.1 70 3.8 E 6 9 3 5 1014.5 1014.4 -
31/08:00am 23.2 25.9 20.3 84 1.9 ESE 6 7 3 4 1014.2 1014.1 -
31/07:30am 20.5 23.3 20.5 100 0.0 ESE 6 7 3 4 1013.7 1013.6 -
31/07:00am 18.7 20.5 18.7 100 0.0 SE 7 9 4 5 1013.4 1013.3 -
31/06:30am 18.2 19.8 18.2 100 0.0 ESE 7 9 4 5 1013.1 1013.0 -
31/06:00am 18.3 19.9 18.3 100 0.0 E 7 7 4 4 1012.9 1012.8 -
31/05:30am 18.3 19.9 18.3 100 0.0 E 7 7 4 4 1012.8 1012.7 -
31/05:00am 18.6 20.3 18.6 100 0.0 ESE 7 7 4 4 1012.7 1012.6 -
31/04:30am 19.1 21.1 19.1 100 0.0 E 7 9 4 5 1012.7 1012.6 -
31/04:00am 19.4 21.7 19.4 100 0.0 ESE 6 7 3 4 1012.9 1012.8 -
31/03:30am 20.1 22.7 20.1 100 0.0 ESE 6 7 3 4 1013.0 1012.9 -
31/03:00am 20.6 23.3 20.6 100 0.0 E 7 9 4 5 1013.1 1013.0 -
31/02:30am 20.8 23.8 20.8 100 0.0 E 6 7 3 4 1013.1 1013.0 -
31/02:00am 21.3 24.3 21.3 100 0.0 E 7 9 4 5 1013.2 1013.1 -
31/01:30am 21.2 24.4 21.2 100 0.0 E 6 7 3 4 1013.5 1013.4 -
31/01:00am 20.9 23.7 20.9 100 0.0 ENE 7 7 4 4 1013.4 1013.3 -
31/12:30am 20.9 23.9 20.9 100 0.0 E 6 7 3 4 1013.4 1013.3 -
31/12:00am 20.6 23.8 20.6 100 0.0 E 4 6 2 3 1013.4 1013.3 -
 
Date/Time
CST
Temp
°C
App
Temp
°C
Dew
Point
Rel
Hum
%
Delta-T
°C
Wind Press
QNH
hPa
Press
MSL
hPa
Rain
since 9 am
mm
Dir
 
Spd
km/h
Gust
km/h
Spd
kts
Gust
kts
30/11:30pm 19.7 22.0 18.5 93 0.7 ENE 4 6 2 3 1013.5 1013.4 -

Other Formats:

Comma delimited format used in spreadsheet applications
http://www.bom.gov.au/fwo/IDD60801/IDD60801.94108.axf

JavaScript Object Notation format (JSON) in row-major order
http://www.bom.gov.au/fwo/IDD60801/IDD60801.94108.json